createdAt,value
2018-02-01T00:01:45.031Z,99089.99
2018-02-01T00:04:12.591Z,99092.34
2018-02-01T00:06:40.172Z,99086.48
2018-02-01T00:09:07.796Z,99084.89
2018-02-01T00:11:35.340Z,99094.19
2018-02-01T00:14:03.910Z,99082.83
2018-02-01T00:16:31.871Z,99084.52
2018-02-01T00:18:59.384Z,99084.66
2018-02-01T00:21:26.933Z,99081.12
2018-02-01T00:23:54.559Z,99092.98
2018-02-01T00:26:22.084Z,99080.34
2018-02-01T00:28:49.658Z,99073.02
2018-02-01T00:31:17.249Z,99075.25
2018-02-01T00:33:45.200Z,99083.77
2018-02-01T00:36:14.531Z,99082.47
2018-02-01T00:38:42.052Z,99080.38
2018-02-01T00:41:09.638Z,99080.00
2018-02-01T00:43:37.209Z,99073.59
2018-02-01T00:46:04.875Z,99076.22
2018-02-01T00:48:32.388Z,99071.89
2018-02-01T00:50:59.907Z,99070.60
2018-02-01T00:53:27.646Z,99064.59
2018-02-01T00:55:55.179Z,99064.88
2018-02-01T00:58:22.695Z,99064.07
2018-02-01T01:00:50.256Z,99065.26
2018-02-01T01:03:17.806Z,99070.08
2018-02-01T01:05:45.389Z,99072.97
2018-02-01T01:08:12.924Z,99068.41
2018-02-01T01:10:40.503Z,99061.73
2018-02-01T01:13:08.086Z,99062.53
2018-02-01T01:15:35.651Z,99059.40
2018-02-01T01:18:03.235Z,99062.53
2018-02-01T01:20:30.784Z,99060.16
2018-02-01T01:22:58.329Z,99055.23
2018-02-01T01:25:25.964Z,99066.30
2018-02-01T01:27:53.516Z,99071.25
2018-02-01T01:30:21.070Z,99068.12
2018-02-01T01:32:48.628Z,99058.08
2018-02-01T01:35:16.148Z,99059.14
2018-02-01T01:37:43.685Z,99062.27
2018-02-01T01:40:11.258Z,99052.08
2018-02-01T01:42:38.779Z,99049.71
2018-02-01T01:45:06.381Z,99054.17
2018-02-01T01:47:33.895Z,99056.52
2018-02-01T01:50:01.459Z,99041.23
2018-02-01T01:52:29.021Z,99039.81
2018-02-01T01:54:56.555Z,99039.70
2018-02-01T01:57:24.151Z,99037.98
2018-02-01T01:59:51.673Z,99028.73
2018-02-01T02:02:19.202Z,99038.52
2018-02-01T02:04:46.757Z,99035.01
2018-02-01T02:07:14.273Z,99030.16
2018-02-01T02:09:41.815Z,99023.77
2018-02-01T02:12:09.373Z,99032.13
2018-02-01T02:14:37.242Z,99022.59
2018-02-01T02:17:04.773Z,99023.21
2018-02-01T02:19:32.334Z,99022.44
2018-02-01T02:21:59.929Z,99017.89
2018-02-01T02:24:27.439Z,99023.89
2018-02-01T02:26:54.967Z,99029.36
2018-02-01T02:29:22.518Z,99024.67
2018-02-01T02:31:50.044Z,99021.13
2018-02-01T02:34:17.598Z,99026.23
2018-02-01T02:36:45.159Z,99027.50
2018-02-01T02:39:12.683Z,99027.63
2018-02-01T02:41:40.251Z,99023.56
2018-02-01T02:44:07.814Z,99018.95
2018-02-01T02:46:35.379Z,99023.22
2018-02-01T02:49:03.023Z,99012.86
2018-02-01T02:51:30.608Z,99010.34
2018-02-01T02:53:58.861Z,99009.61
2018-02-01T02:56:26.367Z,99019.23
2018-02-01T02:58:53.928Z,99017.17
2018-02-01T03:01:21.458Z,99009.17
2018-02-01T03:03:48.976Z,99018.06
2018-02-01T03:06:16.871Z,99015.37
2018-02-01T03:08:44.403Z,99017.34
2018-02-01T03:11:11.947Z,99021.42
2018-02-01T03:13:39.514Z,99010.28
2018-02-01T03:16:07.054Z,99012.09
2018-02-01T03:18:34.608Z,99008.61
2018-02-01T03:21:02.114Z,99008.97
2018-02-01T03:23:29.771Z,99006.22
2018-02-01T03:25:57.303Z,99010.00
2018-02-01T03:28:24.859Z,99012.02
2018-02-01T03:30:52.470Z,99024.69
2018-02-01T03:33:20.039Z,99018.11
2018-02-01T03:35:47.584Z,99015.23
2018-02-01T03:38:15.122Z,99017.56
2018-02-01T03:40:42.698Z,99008.56
2018-02-01T03:43:10.229Z,99006.33
2018-02-01T03:45:37.740Z,99010.69
2018-02-01T03:48:05.314Z,99006.75
2018-02-01T03:50:32.847Z,99003.47
2018-02-01T03:53:00.357Z,99010.83
2018-02-01T03:55:27.979Z,98996.30
2018-02-01T03:57:55.494Z,98998.61
2018-02-01T04:00:23.044Z,99004.36
2018-02-01T04:02:50.597Z,99000.61
2018-02-01T04:05:18.146Z,99005.48
2018-02-01T04:07:45.673Z,99009.04
2018-02-01T04:10:13.176Z,99001.75
2018-02-01T04:12:40.740Z,99008.48
2018-02-01T04:15:08.304Z,99009.66
2018-02-01T04:17:35.937Z,99015.69
2018-02-01T04:20:03.549Z,99018.94
2018-02-01T04:22:31.072Z,99009.91
2018-02-01T04:24:58.622Z,99011.77
2018-02-01T04:27:26.183Z,99004.91
2018-02-01T04:29:53.716Z,99007.92
2018-02-01T04:32:21.295Z,99006.02
2018-02-01T04:34:48.830Z,98998.55
2018-02-01T04:37:16.362Z,99005.48
2018-02-01T04:39:43.919Z,98999.30
2018-02-01T04:42:11.495Z,99002.11
2018-02-01T04:44:39.140Z,99006.78
2018-02-01T04:47:06.679Z,98996.89
2018-02-01T04:49:34.215Z,99005.64
2018-02-01T04:52:01.796Z,99004.53
2018-02-01T04:54:30.269Z,99007.75
2018-02-01T04:56:57.861Z,99010.92
2018-02-01T04:59:25.379Z,99011.17
2018-02-01T05:01:52.915Z,99002.35
2018-02-01T05:04:20.548Z,99003.00
2018-02-01T05:06:48.112Z,99000.92
2018-02-01T05:09:15.652Z,98999.99
2018-02-01T05:11:43.243Z,99007.42
2018-02-01T05:14:10.811Z,99007.44
2018-02-01T05:16:38.411Z,99009.99
2018-02-01T05:19:06.512Z,99005.41
2018-02-01T05:21:34.079Z,99008.47
2018-02-01T05:24:01.640Z,99005.12
2018-02-01T05:26:29.240Z,98999.19
2018-02-01T05:28:56.762Z,98999.95
2018-02-01T05:31:24.289Z,99000.20
2018-02-01T05:33:51.852Z,98990.32
2018-02-01T05:36:19.415Z,98992.80
2018-02-01T05:38:46.961Z,98981.72
2018-02-01T05:41:14.533Z,98989.34
2018-02-01T05:43:42.164Z,98990.19
2018-02-01T05:46:09.730Z,98988.33
2018-02-01T05:48:37.309Z,98992.05
2018-02-01T05:51:04.964Z,98990.73
2018-02-01T05:53:32.460Z,98992.21
2018-02-01T05:55:59.990Z,98990.50
2018-02-01T05:58:27.537Z,98996.98
2018-02-01T06:00:55.042Z,99005.23
2018-02-01T06:03:22.599Z,98997.92
2018-02-01T06:05:50.111Z,99002.50
2018-02-01T06:08:17.673Z,99008.63
2018-02-01T06:10:45.242Z,99011.13
2018-02-01T06:13:13.138Z,99018.43
2018-02-01T06:15:40.688Z,99009.11
2018-02-01T06:18:08.207Z,99005.89
2018-02-01T06:20:35.803Z,99007.06
2018-02-01T06:23:03.338Z,99007.73
2018-02-01T06:25:31.074Z,99006.02
2018-02-01T06:27:58.649Z,98998.73
2018-02-01T06:30:26.181Z,99003.69
2018-02-01T06:32:53.774Z,99005.77
2018-02-01T06:35:21.343Z,99010.72
2018-02-01T06:37:48.934Z,99017.11
2018-02-01T06:40:16.480Z,99006.63
2018-02-01T06:42:44.009Z,99010.08
2018-02-01T06:45:11.581Z,99006.44
2018-02-01T06:47:39.131Z,99011.11
2018-02-01T06:50:06.707Z,99007.63
2018-02-01T06:52:34.233Z,99010.68
2018-02-01T06:55:01.772Z,99012.40
2018-02-01T06:57:29.344Z,99003.13
2018-02-01T06:59:56.929Z,99007.03
2018-02-01T07:02:24.525Z,99007.55
2018-02-01T07:04:52.057Z,99016.80
2018-02-01T07:07:19.618Z,99021.12
2018-02-01T07:09:47.178Z,99017.73
2018-02-01T07:12:14.711Z,99018.63
2018-02-01T07:14:42.265Z,99022.70
2018-02-01T07:17:09.881Z,99025.56
2018-02-01T07:19:37.414Z,99027.89
2018-02-01T07:22:04.970Z,99029.08
2018-02-01T07:24:32.512Z,99034.83
2018-02-01T07:27:00.045Z,99034.72
2018-02-01T07:29:27.574Z,99028.44
2018-02-01T07:31:55.134Z,99035.60
2018-02-01T07:34:22.690Z,99032.98
2018-02-01T07:36:50.250Z,99034.57
2018-02-01T07:39:17.819Z,99042.39
2018-02-01T07:41:45.666Z,99047.98
2018-02-01T07:44:13.199Z,99043.69
2018-02-01T07:46:50.681Z,99045.39
2018-02-01T07:49:18.223Z,99051.37
2018-02-01T07:51:45.777Z,99045.06
2018-02-01T07:54:13.683Z,99049.11
2018-02-01T07:56:41.244Z,99049.75
2018-02-01T07:59:08.799Z,99052.72
2018-02-01T08:01:36.354Z,99044.84
2018-02-01T08:04:03.916Z,99050.32
2018-02-01T08:06:31.461Z,99053.60
2018-02-01T08:08:59.001Z,99059.92
2018-02-01T08:11:26.544Z,99068.92
2018-02-01T08:13:54.121Z,99066.66
2018-02-01T08:16:21.648Z,99064.28
2018-02-01T08:18:49.233Z,99068.44
2018-02-01T08:21:16.772Z,99071.77
2018-02-01T08:23:44.294Z,99064.81
2018-02-01T08:26:11.984Z,99060.78
2018-02-01T08:28:39.508Z,99058.41
2018-02-01T08:31:07.390Z,99055.09
2018-02-01T08:33:35.002Z,99056.25
2018-02-01T08:36:02.538Z,99060.78
2018-02-01T08:38:30.118Z,99058.06
2018-02-01T08:40:57.656Z,99054.77
2018-02-01T08:43:25.219Z,99054.09
2018-02-01T08:45:52.814Z,99061.00
2018-02-01T08:48:20.386Z,99056.72
2018-02-01T08:50:47.902Z,99061.16
2018-02-01T08:53:15.425Z,99063.39
2018-02-01T08:55:43.321Z,99059.53
2018-02-01T08:58:10.969Z,99062.13
2018-02-01T09:00:38.635Z,99054.81
2018-02-01T09:03:06.166Z,99060.25
2018-02-01T09:05:33.739Z,99072.83
2018-02-01T09:08:01.300Z,99062.66
2018-02-01T09:10:28.864Z,99066.07
2018-02-01T09:12:56.379Z,99061.88
2018-02-01T09:15:24.924Z,99063.99
2018-02-01T09:17:52.442Z,99059.16
2018-02-01T09:20:19.986Z,99059.47
2018-02-01T09:22:47.857Z,99062.70
2018-02-01T09:25:15.377Z,99063.48
2018-02-01T09:27:42.918Z,99063.30
2018-02-01T09:30:10.475Z,99064.89
2018-02-01T09:32:37.999Z,99065.63
2018-02-01T09:35:05.921Z,99067.91
2018-02-01T09:37:33.549Z,99068.59
2018-02-01T09:40:01.074Z,99067.47
2018-02-01T09:42:28.627Z,99064.25
2018-02-01T09:44:56.165Z,99067.06
2018-02-01T09:47:23.675Z,99069.59
2018-02-01T09:49:51.527Z,99075.31
2018-02-01T09:52:19.076Z,99069.92
2018-02-01T09:54:46.660Z,99074.52
2018-02-01T09:57:14.235Z,99086.17
2018-02-01T09:59:41.781Z,99084.38
2018-02-01T10:02:09.334Z,99085.59
2018-02-01T10:04:36.863Z,99082.64
2018-02-01T10:07:04.765Z,99086.95
2018-02-01T10:09:32.277Z,99092.23
2018-02-01T10:11:59.816Z,99094.02
2018-02-01T10:14:27.353Z,99097.56
2018-02-01T10:16:54.917Z,99098.69
2018-02-01T10:19:22.508Z,99093.77
2018-02-01T10:21:50.024Z,99100.39
2018-02-01T10:24:17.655Z,99095.30
2018-02-01T10:26:45.237Z,99098.56
2018-02-01T10:29:12.783Z,99105.13
2018-02-01T10:31:40.361Z,99100.25
2018-02-01T10:34:07.882Z,99095.91
2018-02-01T10:36:35.510Z,99108.45
2018-02-01T10:39:03.094Z,99108.56
2018-02-01T10:41:30.600Z,99110.19
2018-02-01T10:43:58.586Z,99107.89
2018-02-01T10:46:26.178Z,99104.63
2018-02-01T10:48:53.704Z,99099.45
2018-02-01T10:51:21.244Z,99109.97
2018-02-01T10:53:48.782Z,99105.73
2018-02-01T10:56:17.326Z,99106.12
2018-02-01T10:58:44.839Z,99103.14
2018-02-01T11:01:12.373Z,99107.86
2018-02-01T11:03:39.917Z,99112.17
2018-02-01T11:06:07.423Z,99102.72
2018-02-01T11:08:34.997Z,99105.61
2018-02-01T11:11:02.578Z,99103.59
2018-02-01T11:13:30.092Z,99102.09
2018-02-01T11:15:57.614Z,99100.53
2018-02-01T11:18:25.148Z,99105.23
2018-02-01T11:20:52.709Z,99101.55
2018-02-01T11:23:20.281Z,99097.62
2018-02-01T11:25:47.829Z,99102.42
2018-02-01T11:28:15.401Z,99101.36
2018-02-01T11:30:42.947Z,99098.50
2018-02-01T11:33:10.470Z,99101.25
2018-02-01T11:35:38.053Z,99098.45
2018-02-01T11:38:05.611Z,99099.36
2018-02-01T11:40:33.141Z,99092.36
2018-02-01T11:43:00.718Z,99099.55
2018-02-01T11:45:28.231Z,99094.55
2018-02-01T11:47:55.820Z,99092.34
2018-02-01T11:50:23.374Z,99085.95
2018-02-01T11:52:50.985Z,99085.16
2018-02-01T11:55:18.518Z,99075.45
2018-02-01T11:57:46.027Z,99078.68
2018-02-01T12:00:13.557Z,99071.27
2018-02-01T12:02:41.070Z,99075.38
2018-02-01T12:05:08.616Z,99072.88
2018-02-01T12:07:36.142Z,99076.81
2018-02-01T12:10:03.703Z,99069.42
2018-02-01T12:12:31.256Z,99072.84
2018-02-01T12:14:58.815Z,99072.39
2018-02-01T12:17:26.355Z,99073.08
2018-02-01T12:19:53.921Z,99067.99
2018-02-01T12:22:21.455Z,99069.91
2018-02-01T12:24:49.003Z,99075.86
2018-02-01T12:27:16.583Z,99078.16
2018-02-01T12:29:44.142Z,99081.75
2018-02-01T12:32:11.691Z,99079.84
2018-02-01T12:34:39.307Z,99076.02
2018-02-01T12:37:06.882Z,99085.33
2018-02-01T12:39:34.451Z,99090.80
2018-02-01T12:42:02.001Z,99082.80
2018-02-01T12:44:29.545Z,99089.81
2018-02-01T12:46:57.132Z,99079.77
2018-02-01T12:49:24.659Z,99074.00
2018-02-01T12:51:52.513Z,99073.27
2018-02-01T12:54:20.034Z,99074.52
2018-02-01T12:56:47.581Z,99070.47
2018-02-01T12:59:15.138Z,99075.61
2018-02-01T13:01:42.668Z,99072.89
2018-02-01T13:04:10.186Z,99075.28
2018-02-01T13:06:37.729Z,99078.73
2018-02-01T13:09:05.322Z,99072.83
2018-02-01T13:11:32.842Z,99073.50
2018-02-01T13:14:00.413Z,99072.20
2018-02-01T13:16:27.940Z,99075.73
2018-02-01T13:18:55.444Z,99074.75
2018-02-01T13:21:22.975Z,99074.42
2018-02-01T13:23:50.494Z,99078.13
2018-02-01T13:26:18.058Z,99070.76
2018-02-01T13:28:45.599Z,99078.28
2018-02-01T13:31:13.229Z,99067.20
2018-02-01T13:33:40.736Z,99062.95
2018-02-01T13:36:08.285Z,99065.23
2018-02-01T13:38:35.874Z,99065.84
2018-02-01T13:41:03.388Z,99065.19
2018-02-01T13:43:30.928Z,99072.42
2018-02-01T13:45:58.497Z,99079.20
2018-02-01T13:48:26.031Z,99072.72
2018-02-01T13:50:53.531Z,99073.02
2018-02-01T13:53:21.050Z,99074.11
2018-02-01T13:55:48.611Z,99072.73
2018-02-01T13:58:16.143Z,99075.40
2018-02-01T14:00:43.738Z,99090.86
2018-02-01T14:03:11.273Z,99086.20
2018-02-01T14:05:38.806Z,99083.84
2018-02-01T14:08:06.335Z,99089.64
2018-02-01T14:10:33.844Z,99093.83
2018-02-01T14:13:01.388Z,99090.81
2018-02-01T14:15:28.908Z,99089.75
2018-02-01T14:17:56.482Z,99093.34
2018-02-01T14:20:24.103Z,99096.26
2018-02-01T14:22:51.620Z,99101.70
2018-02-01T14:25:19.142Z,99100.08
2018-02-01T14:27:47.584Z,99106.80
2018-02-01T14:30:15.087Z,99106.04
2018-02-01T14:32:42.983Z,99106.73
2018-02-01T14:35:10.549Z,99103.53
2018-02-01T14:37:38.126Z,99110.13
2018-02-01T14:40:05.759Z,99112.12
2018-02-01T14:42:33.333Z,99108.16
2018-02-01T14:45:00.864Z,99102.23
2018-02-01T14:47:28.398Z,99101.86
2018-02-01T14:49:55.937Z,99102.28
2018-02-01T14:52:23.470Z,99106.00
2018-02-01T14:54:51.017Z,99101.98
2018-02-01T14:57:18.561Z,99094.77
2018-02-01T14:59:46.267Z,99091.71
2018-02-01T15:02:13.809Z,99097.94
2018-02-01T15:04:41.464Z,99101.98
2018-02-01T15:07:09.049Z,99099.45
2018-02-01T15:09:36.654Z,99108.13
2018-02-01T15:12:04.176Z,99104.70
2018-02-01T15:14:31.682Z,99110.98
2018-02-01T15:16:59.211Z,99105.17
2018-02-01T15:19:26.785Z,99105.86
2018-02-01T15:21:54.378Z,99108.30
2018-02-01T15:24:21.929Z,99107.72
2018-02-01T15:26:49.467Z,99113.17
2018-02-01T15:29:17.056Z,99115.72
2018-02-01T15:31:44.643Z,99115.45
2018-02-01T15:34:12.188Z,99118.08
2018-02-01T15:36:39.734Z,99115.91
2018-02-01T15:39:07.259Z,99116.33
2018-02-01T15:41:34.804Z,99116.53
2018-02-01T15:44:02.357Z,99118.75
2018-02-01T15:46:29.920Z,99113.28
2018-02-01T15:48:57.465Z,99115.31
2018-02-01T15:51:25.004Z,99110.52
2018-02-01T15:53:52.587Z,99117.73
2018-02-01T15:56:20.120Z,99119.14
2018-02-01T15:58:47.680Z,99117.25
2018-02-01T16:01:15.325Z,99117.33
2018-02-01T16:03:43.255Z,99112.06
2018-02-01T16:06:10.768Z,99115.48
2018-02-01T16:08:38.299Z,99113.66
2018-02-01T16:11:05.912Z,99120.19
2018-02-01T16:13:33.424Z,99124.25
2018-02-01T16:16:00.939Z,99134.98
2018-02-01T16:18:28.471Z,99138.80
2018-02-01T16:20:56.023Z,99141.16
2018-02-01T16:23:23.586Z,99142.61
2018-02-01T16:25:51.133Z,99139.34
2018-02-01T16:28:18.714Z,99137.38
2018-02-01T16:30:46.275Z,99139.33
2018-02-01T16:33:13.810Z,99137.48
2018-02-01T16:35:41.389Z,99141.59
2018-02-01T16:38:08.906Z,99144.88
2018-02-01T16:40:36.446Z,99149.08
2018-02-01T16:43:04.364Z,99153.50
2018-02-01T16:45:31.929Z,99160.53
2018-02-01T16:47:59.544Z,99159.55
2018-02-01T16:50:27.126Z,99159.05
2018-02-01T16:52:54.662Z,99156.34
2018-02-01T16:55:22.613Z,99149.40
2018-02-01T16:57:50.162Z,99149.13
2018-02-01T17:00:17.690Z,99158.52
2018-02-01T17:02:45.218Z,99158.74
2018-02-01T17:05:12.773Z,99155.72
2018-02-01T17:07:40.411Z,99163.48
2018-02-01T17:10:07.938Z,99173.02
2018-02-01T17:12:35.579Z,99159.47
2018-02-01T17:15:03.118Z,99157.20
2018-02-01T17:17:30.646Z,99161.25
2018-02-01T17:19:58.229Z,99162.71
2018-02-01T17:22:25.785Z,99166.08
2018-02-01T17:24:53.341Z,99169.06
2018-02-01T17:27:20.918Z,99171.50
2018-02-01T17:29:48.464Z,99170.88
2018-02-01T17:32:16.023Z,99169.09
2018-02-01T17:34:43.591Z,99178.23
2018-02-01T17:37:11.130Z,99184.52
2018-02-01T17:39:38.712Z,99181.09
2018-02-01T17:42:06.234Z,99188.16
2018-02-01T17:44:33.820Z,99186.37
2018-02-01T17:47:01.373Z,99193.53
2018-02-01T17:49:28.967Z,99195.70
2018-02-01T17:51:56.522Z,99189.73
2018-02-01T17:54:24.116Z,99195.31
2018-02-01T17:56:51.641Z,99190.78
2018-02-01T17:59:19.221Z,99198.58
2018-02-01T18:01:46.779Z,99197.69
2018-02-01T18:04:14.342Z,99195.19
2018-02-01T18:06:41.921Z,99202.26
2018-02-01T18:09:09.468Z,99201.09
2018-02-01T18:11:37.342Z,99202.04
2018-02-01T18:14:04.865Z,99193.81
2018-02-01T18:16:32.373Z,99198.65
2018-02-01T18:18:59.912Z,99200.35
2018-02-01T18:21:27.447Z,99205.16
2018-02-01T18:23:55.017Z,99202.39
2018-02-01T18:26:22.544Z,99206.52
2018-02-01T18:28:50.093Z,99205.38
2018-02-01T18:31:17.617Z,99203.65
2018-02-01T18:33:45.185Z,99206.25
2018-02-01T18:36:12.739Z,99201.02
2018-02-01T18:38:40.639Z,99206.88
2018-02-01T18:41:08.134Z,99201.13
2018-02-01T18:43:35.670Z,99209.16
2018-02-01T18:46:03.581Z,99211.31
2018-02-01T18:48:31.087Z,99202.86
2018-02-01T18:50:58.681Z,99207.98
2018-02-01T18:53:26.221Z,99203.16
2018-02-01T18:55:53.742Z,99207.90
2018-02-01T18:58:21.361Z,99213.80
2018-02-01T19:00:48.914Z,99216.38
2018-02-01T19:03:16.553Z,99219.51
2018-02-01T19:05:44.229Z,99213.53
2018-02-01T19:08:11.884Z,99217.72
2018-02-01T19:10:39.438Z,99220.86
2018-02-01T19:13:07.031Z,99214.74
2018-02-01T19:15:34.558Z,99215.28
2018-02-01T19:18:02.073Z,99211.10
2018-02-01T19:20:29.612Z,99215.03
2018-02-01T19:22:57.163Z,99211.58
2018-02-01T19:25:24.918Z,99216.19
2018-02-01T19:27:52.434Z,99212.78
2018-02-01T19:30:19.977Z,99217.75
2018-02-01T19:32:47.521Z,99220.65
2018-02-01T19:35:15.056Z,99223.90
2018-02-01T19:37:42.627Z,99223.89
2018-02-01T19:40:10.217Z,99220.73
2018-02-01T19:42:37.781Z,99225.30
2018-02-01T19:45:05.721Z,99226.77
2018-02-01T19:47:33.231Z,99221.67
2018-02-01T19:50:00.799Z,99224.42
2018-02-01T19:52:28.763Z,99227.16
2018-02-01T19:54:56.300Z,99225.71
2018-02-01T19:57:23.872Z,99221.66
2018-02-01T19:59:51.440Z,99226.89
2018-02-01T20:02:18.985Z,99219.93
2018-02-01T20:04:46.711Z,99218.08
2018-02-01T20:07:14.233Z,99217.69
2018-02-01T20:09:41.858Z,99214.15
2018-02-01T20:12:09.418Z,99218.56
2018-02-01T20:14:37.018Z,99221.17
2018-02-01T20:17:04.629Z,99221.08
2018-02-01T20:19:32.358Z,99216.94
2018-02-01T20:22:00.338Z,99218.91
2018-02-01T20:24:28.086Z,99214.11
2018-02-01T20:26:55.598Z,99218.54
2018-02-01T20:29:23.136Z,99217.33
2018-02-01T20:31:50.735Z,99220.76
2018-02-01T20:34:18.378Z,99215.55
2018-02-01T20:36:46.254Z,99229.09
2018-02-01T20:39:13.819Z,99221.42
2018-02-01T20:41:41.424Z,99222.31
2018-02-01T20:44:09.098Z,99216.83
2018-02-01T20:46:36.679Z,99212.09
2018-02-01T20:49:04.621Z,99221.66
2018-02-01T20:51:32.172Z,99224.02
2018-02-01T20:53:59.724Z,99226.94
2018-02-01T20:56:27.323Z,99224.44
2018-02-01T20:58:54.913Z,99226.41
2018-02-01T21:01:22.650Z,99226.50
2018-02-01T21:03:50.220Z,99229.66
2018-02-01T21:06:17.793Z,99224.33
2018-02-01T21:08:45.341Z,99222.48
2018-02-01T21:11:12.918Z,99223.58
2018-02-01T21:13:40.445Z,99223.88
2018-02-01T21:16:07.979Z,99227.14
2018-02-01T21:18:35.499Z,99218.17
2018-02-01T21:21:03.026Z,99218.98
2018-02-01T21:23:30.550Z,99218.31
2018-02-01T21:25:58.146Z,99222.13
2018-02-01T21:28:25.665Z,99220.05
2018-02-01T21:30:53.181Z,99225.91
2018-02-01T21:33:20.767Z,99220.07
2018-02-01T21:35:48.295Z,99228.36
2018-02-01T21:38:15.799Z,99227.08
2018-02-01T21:40:43.369Z,99232.01
2018-02-01T21:43:11.313Z,99236.71
2018-02-01T21:45:38.900Z,99240.30
2018-02-01T21:48:06.508Z,99239.50
2018-02-01T21:50:34.080Z,99223.80
2018-02-01T21:53:01.575Z,99237.06
2018-02-01T21:55:29.137Z,99236.89
2018-02-01T21:57:56.671Z,99230.05
2018-02-01T22:00:24.227Z,99231.87
2018-02-01T22:02:51.735Z,99229.92
2018-02-01T22:05:19.254Z,99228.72
2018-02-01T22:07:46.784Z,99236.11
2018-02-01T22:10:14.325Z,99224.94
2018-02-01T22:12:41.884Z,99225.39
2018-02-01T22:15:09.454Z,99224.94
2018-02-01T22:17:36.976Z,99219.80
2018-02-01T22:20:04.539Z,99210.91
2018-02-01T22:22:32.056Z,99225.02
2018-02-01T22:24:59.600Z,99215.03
2018-02-01T22:27:27.178Z,99219.18
2018-02-01T22:29:54.710Z,99212.91
2018-02-01T22:32:22.943Z,99217.14
2018-02-01T22:34:50.480Z,99213.92
2018-02-01T22:37:18.011Z,99210.85
2018-02-01T22:39:45.582Z,99205.23
2018-02-01T22:42:13.096Z,99201.23
2018-02-01T22:44:40.617Z,99195.89
2018-02-01T22:47:08.191Z,99187.09
2018-02-01T22:49:35.737Z,99181.44
2018-02-01T22:52:03.340Z,99184.26
2018-02-01T22:54:30.828Z,99176.77
2018-02-01T22:56:58.382Z,99176.27
2018-02-01T22:59:25.911Z,99170.67
2018-02-01T23:01:53.481Z,99171.73
2018-02-01T23:04:21.017Z,99173.53
2018-02-01T23:06:48.541Z,99173.57
2018-02-01T23:09:16.074Z,99174.59
2018-02-01T23:11:43.612Z,99173.71
2018-02-01T23:14:11.143Z,99161.34
2018-02-01T23:16:38.686Z,99168.08
2018-02-01T23:19:06.328Z,99161.48
2018-02-01T23:21:33.889Z,99152.61
2018-02-01T23:24:01.450Z,99154.00
2018-02-01T23:26:28.963Z,99147.48
2018-02-01T23:28:56.499Z,99148.64
2018-02-01T23:31:24.021Z,99152.64
2018-02-01T23:33:51.745Z,99150.69
2018-02-01T23:36:19.337Z,99148.14
2018-02-01T23:38:46.861Z,99155.31
2018-02-01T23:41:14.421Z,99146.27
2018-02-01T23:43:42.010Z,99148.38
2018-02-01T23:46:09.558Z,99151.92
2018-02-01T23:48:37.066Z,99152.00
2018-02-01T23:51:04.653Z,99154.06
2018-02-01T23:53:32.284Z,99152.64
2018-02-01T23:55:59.808Z,99140.23
2018-02-01T23:58:27.353Z,99142.53
